Time;durP1;ratioP1;P1;durP2;ratioP2;P2;SDS_P1;SDS_P2;PMS_P1;PMS_P2;Temp;Humidity;BMP_temperature;BMP_pressure;BME280_temperature;BME280_humidity;BME280_pressure;Samples;Min_cycle;Max_cycle;Signal;HPM_P1;HPM_P2
2024/03/27 00:00:13;;;;;;;;;;;17.60;60.10;;;;;;5092404;28;19986;-73
2024/03/27 00:02:39;;;;;;;;;;;17.80;60.00;;;;;;5090885;28;20024;-73
2024/03/27 00:05:04;;;;;;;;;;;17.60;60.40;;;;;;5092277;28;20285;-73
2024/03/27 00:07:30;;;;;;;;;;;17.60;59.70;;;;;;5092569;28;19961;-73
2024/03/27 00:09:55;;;;;;;;;;;17.60;60.20;;;;;;5092093;28;20067;-73
2024/03/27 00:12:21;;;;;;;;;;;17.60;60.40;;;;;;5092096;28;19915;-72
2024/03/27 00:14:47;;;;;;;;;;;17.60;60.20;;;;;;5091256;28;19915;-73
2024/03/27 00:17:13;;;;;;;;;;;17.70;60.40;;;;;;5091637;28;19908;-73
2024/03/27 00:19:39;;;;;;;;;;;17.20;59.80;;;;;;5091992;28;20315;-72
2024/03/27 00:22:05;;;;;;;;;;;17.60;60.50;;;;;;5092129;28;19930;-73
2024/03/27 00:24:31;;;;;;;;;;;17.70;60.40;;;;;;5091893;28;20433;-73
2024/03/27 00:26:58;;;;;;;;;;;17.70;60.50;;;;;;5092225;28;20067;-73
2024/03/27 00:29:24;;;;;;;;;;;17.70;60.30;;;;;;5091905;28;19909;-72
2024/03/27 00:31:50;;;;;;;;;;;17.70;60.50;;;;;;5091688;28;19916;-72
2024/03/27 00:34:16;;;;;;;;;;;17.70;60.50;;;;;;5091884;28;19908;-73
2024/03/27 00:36:41;;;;;;;;;;;18.20;61.00;;;;;;5092047;28;19915;-73
2024/03/27 00:39:09;;;;;;;;;;;17.70;60.20;;;;;;5092196;28;20305;-73
2024/03/27 00:41:35;;;;;;;;;;;17.70;60.50;;;;;;5091778;28;20388;-73
2024/03/27 00:44:01;;;;;;;;;;;17.70;60.70;;;;;;5091653;28;19916;-73
2024/03/27 00:46:27;;;;;;;;;;;17.70;60.40;;;;;;5091703;28;19908;-73
2024/03/27 00:48:53;;;;;;;;;;;17.70;60.60;;;;;;5091980;28;20400;-72
2024/03/27 00:51:18;;;;;;;;;;;17.70;60.50;;;;;;5091964;28;19912;-73
2024/03/27 00:53:44;;;;;;;;;;;17.70;60.50;;;;;;5092108;28;20371;-73
2024/03/27 00:56:10;;;;;;;;;;;17.70;60.50;;;;;;5091548;28;20416;-73
2024/03/27 00:58:36;;;;;;;;;;;17.70;60.50;;;;;;5091901;28;19914;-73
2024/03/27 01:01:02;;;;;;;;;;;17.80;60.50;;;;;;5091499;28;20252;-72
2024/03/27 01:03:29;;;;;;;;;;;17.80;60.00;;;;;;5091229;28;19924;-72
2024/03/27 01:05:55;;;;;;;;;;;17.80;60.00;;;;;;5091825;28;19987;-73
2024/03/27 01:08:21;;;;;;;;;;;17.70;60.50;;;;;;5091828;28;19932;-73
2024/03/27 01:10:50;;;;;;;;;;;17.70;60.60;;;;;;5091442;28;20050;-73
2024/03/27 01:13:17;;;;;;;;;;;17.70;60.40;;;;;;5092611;28;19915;-73
2024/03/27 01:15:50;;;;;;;;;;;17.70;60.50;;;;;;5095298;28;19908;-72
2024/03/27 01:18:16;;;;;;;;;;;17.80;57.30;;;;;;5095409;28;20049;-72
2024/03/27 01:20:43;;;;;;;;;;;17.80;60.40;;;;;;5095458;28;20262;-72
2024/03/27 01:23:09;;;;;;;;;;;18.00;60.90;;;;;;5095665;28;19942;-73
2024/03/27 01:25:38;;;;;;;;;;;17.80;61.20;;;;;;5095121;28;20370;-73
2024/03/27 01:28:04;;;;;;;;;;;17.80;57.50;;;;;;5095081;28;20004;-73
2024/03/27 01:30:29;;;;;;;;;;;17.90;60.00;;;;;;5095088;28;20004;-73
2024/03/27 01:32:56;;;;;;;;;;;17.90;60.70;;;;;;5095046;28;20323;-73
2024/03/27 01:35:22;;;;;;;;;;;17.80;60.80;;;;;;5095072;28;19952;-73
2024/03/27 01:37:48;;;;;;;;;;;17.80;60.50;;;;;;5094973;28;19916;-72
2024/03/27 01:40:14;;;;;;;;;;;17.80;58.90;;;;;;5094748;28;19960;-72
2024/03/27 01:42:40;;;;;;;;;;;17.80;60.40;;;;;;5094835;28;20331;-73
2024/03/27 01:45:09;;;;;;;;;;;17.90;60.80;;;;;;5094688;28;19909;-72
2024/03/27 01:47:35;;;;;;;;;;;18.00;60.30;;;;;;5094743;28;19908;-73
2024/03/27 01:50:03;;;;;;;;;;;17.90;60.70;;;;;;5094733;28;19908;-73
2024/03/27 01:52:32;;;;;;;;;;;17.80;60.10;;;;;;5095058;28;19923;-72
2024/03/27 01:54:58;;;;;;;;;;;17.90;60.60;;;;;;5094654;28;19908;-73
2024/03/27 01:57:23;;;;;;;;;;;17.60;60.50;;;;;;5094562;28;19915;-72
2024/03/27 01:59:49;;;;;;;;;;;17.90;60.40;;;;;;5094579;28;19912;-73
2024/03/27 02:02:15;;;;;;;;;;;17.70;59.90;;;;;;5094031;28;20023;-73
2024/03/27 02:04:40;;;;;;;;;;;17.90;60.50;;;;;;5094333;28;19908;-73
2024/03/27 02:07:06;;;;;;;;;;;17.90;60.50;;;;;;5094356;28;20080;-73
2024/03/27 02:09:32;;;;;;;;;;;17.80;60.30;;;;;;5094336;28;19909;-73
2024/03/27 02:11:57;;;;;;;;;;;17.90;60.40;;;;;;5094297;28;19931;-73
2024/03/27 02:14:23;;;;;;;;;;;17.90;60.40;;;;;;5076012;28;20234;-73
2024/03/27 02:16:48;;;;;;;;;;;18.00;60.50;;;;;;5094013;28;19966;-73
2024/03/27 02:19:14;;;;;;;;;;;17.90;60.30;;;;;;5093984;28;20007;-73
2024/03/27 02:21:39;;;;;;;;;;;17.90;60.50;;;;;;5094015;28;19912;-73
2024/03/27 02:24:16;;;;;;;;;;;17.90;60.50;;;;;;5093935;28;19916;-73
2024/03/27 02:26:41;;;;;;;;;;;18.00;57.10;;;;;;5093563;28;20262;-73
2024/03/27 02:29:07;;;;;;;;;;;17.90;61.10;;;;;;5094397;28;19908;-73
2024/03/27 02:31:32;;;;;;;;;;;17.80;60.40;;;;;;5093791;28;19908;-73
2024/03/27 02:33:58;;;;;;;;;;;17.90;60.20;;;;;;5094061;28;19954;-73
2024/03/27 02:36:23;;;;;;;;;;;17.90;60.40;;;;;;5093692;28;19919;-73
2024/03/27 02:38:49;;;;;;;;;;;17.90;60.30;;;;;;5093850;28;19958;-73
2024/03/27 02:41:14;;;;;;;;;;;17.90;60.20;;;;;;5093631;28;19968;-73
2024/03/27 02:43:40;;;;;;;;;;;17.90;60.20;;;;;;5093500;28;19916;-73
2024/03/27 02:46:06;;;;;;;;;;;17.90;60.30;;;;;;5093596;28;19915;-73
2024/03/27 02:48:31;;;;;;;;;;;17.80;60.50;;;;;;5093501;28;19961;-73
2024/03/27 02:50:57;;;;;;;;;;;17.90;60.00;;;;;;5093715;28;20351;-73
2024/03/27 02:53:22;;;;;;;;;;;17.90;60.40;;;;;;5093336;28;19962;-73
2024/03/27 02:55:51;;;;;;;;;;;17.90;60.10;;;;;;5093881;28;19915;-75
2024/03/27 02:58:17;;;;;;;;;;;17.90;57.00;;;;;;5093251;28;19915;-76
2024/03/27 03:00:43;;;;;;;;;;;17.90;60.30;;;;;;5093220;28;19908;-76
2024/03/27 03:03:09;;;;;;;;;;;18.00;59.90;;;;;;5092920;28;20278;-76
2024/03/27 03:05:35;;;;;;;;;;;17.90;60.70;;;;;;5093107;28;19908;-76
2024/03/27 03:08:00;;;;;;;;;;;17.80;60.10;;;;;;5074945;28;19916;-76
2024/03/27 03:10:26;;;;;;;;;;;17.90;60.10;;;;;;5093073;28;19908;-76
2024/03/27 03:12:52;;;;;;;;;;;17.90;60.00;;;;;;5093076;28;19915;-76
2024/03/27 03:15:17;;;;;;;;;;;17.90;60.40;;;;;;5074770;28;20007;-76
2024/03/27 03:17:43;;;;;;;;;;;17.90;60.20;;;;;;5092873;28;19944;-76
2024/03/27 03:20:09;;;;;;;;;;;17.90;60.10;;;;;;5092948;28;19912;-76
2024/03/27 03:22:34;;;;;;;;;;;17.90;58.90;;;;;;5092646;28;19923;-76
2024/03/27 03:25:00;;;;;;;;;;;17.80;60.20;;;;;;5075251;28;20274;-76
2024/03/27 03:27:25;;;;;;;;;;;17.90;60.40;;;;;;5092779;28;19908;-76
2024/03/27 03:29:51;;;;;;;;;;;17.90;60.30;;;;;;5092713;28;19908;-76
2024/03/27 03:32:17;;;;;;;;;;;17.90;60.30;;;;;;5092687;28;19908;-76
2024/03/27 03:34:44;;;;;;;;;;;17.90;60.00;;;;;;5092603;28;19908;-76
2024/03/27 03:37:09;;;;;;;;;;;17.80;60.10;;;;;;5092646;28;19919;-76
2024/03/27 03:39:35;;;;;;;;;;;17.90;60.20;;;;;;5092551;28;19908;-76
2024/03/27 03:42:01;;;;;;;;;;;17.90;59.80;;;;;;5092569;28;20370;-76
2024/03/27 03:44:26;;;;;;;;;;;17.90;60.30;;;;;;5092694;28;19959;-76
2024/03/27 03:46:51;;;;;;;;;;;18.00;60.40;;;;;;5092517;28;19908;-76
2024/03/27 03:49:17;;;;;;;;;;;17.60;60.00;;;;;;5092688;28;19962;-76
2024/03/27 03:51:43;;;;;;;;;;;17.90;60.20;;;;;;5092304;28;19992;-76
2024/03/27 03:54:08;;;;;;;;;;;17.90;60.00;;;;;;5092910;28;19909;-76
2024/03/27 03:56:34;;;;;;;;;;;17.90;60.00;;;;;;5092310;28;20007;-76
2024/03/27 03:59:00;;;;;;;;;;;17.90;60.10;;;;;;5092276;28;19940;-76
2024/03/27 04:01:26;;;;;;;;;;;18.00;59.30;;;;;;5091899;28;19920;-75
2024/03/27 04:03:52;;;;;;;;;;;17.80;60.00;;;;;;5092123;28;19916;-76
2024/03/27 04:06:17;;;;;;;;;;;17.90;59.80;;;;;;5092221;28;19915;-73
2024/03/27 04:08:43;;;;;;;;;;;17.80;59.80;;;;;;5091967;28;20421;-73
2024/03/27 04:11:08;;;;;;;;;;;17.90;59.90;;;;;;5092121;28;19934;-73
2024/03/27 04:13:34;;;;;;;;;;;17.80;59.80;;;;;;5092063;28;20054;-73
2024/03/27 04:16:00;;;;;;;;;;;17.90;59.70;;;;;;5092015;28;19916;-73
2024/03/27 04:18:26;;;;;;;;;;;17.80;59.60;;;;;;5091980;28;19934;-73
2024/03/27 04:20:52;;;;;;;;;;;17.90;59.90;;;;;;5092284;28;19909;-73
2024/03/27 04:23:17;;;;;;;;;;;17.80;59.90;;;;;;5092425;28;19916;-73
2024/03/27 04:25:50;;;;;;;;;;;17.90;59.80;;;;;;5092009;28;19908;-73
2024/03/27 04:28:16;;;;;;;;;;;18.50;56.90;;;;;;5091901;28;20405;-73
2024/03/27 04:30:42;;;;;;;;;;;17.80;59.70;;;;;;5092065;28;19909;-73
2024/03/27 04:33:09;;;;;;;;;;;17.90;59.80;;;;;;5092207;28;19912;-73
2024/03/27 04:35:35;;;;;;;;;;;17.90;59.60;;;;;;5092220;28;19931;-76
2024/03/27 04:38:01;;;;;;;;;;;17.90;59.80;;;;;;5092079;28;20273;-76
2024/03/27 04:40:27;;;;;;;;;;;17.80;59.60;;;;;;5092145;28;19908;-76
2024/03/27 04:42:53;;;;;;;;;;;17.00;59.10;;;;;;5091624;28;19916;-76
2024/03/27 04:45:19;;;;;;;;;;;17.80;59.80;;;;;;5091730;28;19912;-76
2024/03/27 04:47:45;;;;;;;;;;;17.80;59.60;;;;;;5092082;28;19908;-75
2024/03/27 04:50:11;;;;;;;;;;;18.00;59.80;;;;;;5096467;28;19916;-73
2024/03/27 04:52:37;;;;;;;;;;;17.90;59.50;;;;;;5096040;28;19999;-73
2024/03/27 04:55:03;;;;;;;;;;;17.80;59.40;;;;;;5095952;28;19983;-73
2024/03/27 04:57:30;;;;;;;;;;;17.80;59.40;;;;;;5095604;28;20366;-73
2024/03/27 04:59:56;;;;;;;;;;;17.80;59.50;;;;;;5095903;28;19908;-73
2024/03/27 05:02:22;;;;;;;;;;;17.90;58.90;;;;;;5095367;28;19929;-73
2024/03/27 05:04:49;;;;;;;;;;;17.80;59.60;;;;;;5095843;28;20274;-72
2024/03/27 05:07:15;;;;;;;;;;;18.00;59.40;;;;;;5095433;28;20381;-73
2024/03/27 05:09:41;;;;;;;;;;;17.80;59.30;;;;;;5095695;28;19915;-73
2024/03/27 05:12:07;;;;;;;;;;;17.80;59.50;;;;;;5095284;28;20336;-73
2024/03/27 05:14:33;;;;;;;;;;;17.80;59.50;;;;;;5095517;28;19908;-73
2024/03/27 05:16:59;;;;;;;;;;;17.80;59.30;;;;;;5095448;28;19912;-73
2024/03/27 05:19:25;;;;;;;;;;;18.00;59.60;;;;;;5095766;28;19908;-73
2024/03/27 05:21:52;;;;;;;;;;;17.70;59.30;;;;;;5095509;28;20006;-74
2024/03/27 05:24:18;;;;;;;;;;;17.80;59.30;;;;;;5095065;28;20003;-73
2024/03/27 05:26:46;;;;;;;;;;;17.80;59.30;;;;;;5094995;28;19954;-73
2024/03/27 05:29:11;;;;;;;;;;;17.70;59.40;;;;;;5076918;28;20378;-73
2024/03/27 05:31:50;;;;;;;;;;;17.80;59.00;;;;;;5095142;28;19962;-73
2024/03/27 05:34:16;;;;;;;;;;;17.70;56.00;;;;;;5095049;28;19966;-73
2024/03/27 05:36:41;;;;;;;;;;;17.70;59.40;;;;;;5095169;28;20010;-72
2024/03/27 05:39:08;;;;;;;;;;;17.80;59.20;;;;;;5094870;28;19974;-73
2024/03/27 05:41:34;;;;;;;;;;;17.70;59.40;;;;;;5094791;28;19960;-73
2024/03/27 05:43:59;;;;;;;;;;;17.70;59.00;;;;;;5094606;28;19919;-73
2024/03/27 05:46:25;;;;;;;;;;;17.70;59.30;;;;;;5094454;28;20052;-73
2024/03/27 05:48:50;;;;;;;;;;;17.70;59.50;;;;;;5094921;28;19908;-73
2024/03/27 05:51:17;;;;;;;;;;;17.70;59.20;;;;;;5094410;28;20324;-72
2024/03/27 05:53:42;;;;;;;;;;;17.70;59.20;;;;;;5094507;28;20279;-73
2024/03/27 05:56:08;;;;;;;;;;;17.80;59.10;;;;;;5094439;28;19927;-73
2024/03/27 05:58:33;;;;;;;;;;;17.70;59.20;;;;;;5094447;28;20543;-73
2024/03/27 06:00:59;;;;;;;;;;;17.70;59.10;;;;;;5094207;28;19912;-73
2024/03/27 06:03:24;;;;;;;;;;;17.80;58.80;;;;;;5093856;28;20271;-73
2024/03/27 06:05:50;;;;;;;;;;;17.70;59.20;;;;;;5094284;28;19952;-73
2024/03/27 06:08:15;;;;;;;;;;;17.70;59.00;;;;;;5094092;28;20282;-73
2024/03/27 06:10:42;;;;;;;;;;;17.50;59.00;;;;;;5094232;28;19915;-73
2024/03/27 06:13:09;;;;;;;;;;;17.60;58.90;;;;;;5094006;28;19908;-73
2024/03/27 06:15:34;;;;;;;;;;;17.60;59.20;;;;;;5094951;28;19915;-73
2024/03/27 06:18:00;;;;;;;;;;;17.60;59.10;;;;;;5094124;28;19956;-72
2024/03/27 06:20:26;;;;;;;;;;;17.60;59.30;;;;;;5094101;28;19912;-73
2024/03/27 06:22:52;;;;;;;;;;;17.60;59.40;;;;;;5094244;28;19917;-73
2024/03/27 06:25:18;;;;;;;;;;;17.60;59.40;;;;;;5093942;28;20531;-74
2024/03/27 06:27:44;;;;;;;;;;;17.60;59.30;;;;;;5094023;28;20011;-73
2024/03/27 06:30:10;;;;;;;;;;;17.70;59.30;;;;;;5093889;28;20294;-72
2024/03/27 06:32:37;;;;;;;;;;;17.60;57.70;;;;;;5077931;28;19992;-74
2024/03/27 06:35:03;;;;;;;;;;;17.70;58.90;;;;;;5080794;28;19912;-73
2024/03/27 06:37:30;;;;;;;;;;;17.60;58.90;;;;;;5093614;28;19918;-73
2024/03/27 06:39:56;;;;;;;;;;;17.70;59.10;;;;;;5093617;28;19912;-74
2024/03/27 06:42:21;;;;;;;;;;;17.60;59.20;;;;;;5093505;28;20212;-72
2024/03/27 06:44:47;;;;;;;;;;;17.60;59.20;;;;;;5094052;28;19915;-74
2024/03/27 06:47:13;;;;;;;;;;;17.60;59.60;;;;;;5093817;28;19962;-77
2024/03/27 06:49:38;;;;;;;;;;;17.60;59.00;;;;;;5093394;28;19908;-74
2024/03/27 06:52:04;;;;;;;;;;;17.60;59.20;;;;;;5093383;28;19951;-74
2024/03/27 06:54:29;;;;;;;;;;;17.60;58.10;;;;;;5093325;28;19981;-74
2024/03/27 06:56:55;;;;;;;;;;;17.60;58.80;;;;;;5093558;28;19908;-77
2024/03/27 06:59:20;;;;;;;;;;;17.60;59.10;;;;;;5097487;28;19908;-75
2024/03/27 07:01:46;;;;;;;;;;;17.80;58.40;;;;;;5096338;28;20281;-76
2024/03/27 07:04:11;;;;;;;;;;;17.60;59.40;;;;;;5093258;28;20019;-74
2024/03/27 07:06:37;;;;;;;;;;;17.70;59.20;;;;;;5093429;28;19908;-72
2024/03/27 07:09:03;;;;;;;;;;;18.00;59.40;;;;;;5093155;28;20281;-72
2024/03/27 07:11:29;;;;;;;;;;;17.60;59.00;;;;;;5092748;28;19912;-73
2024/03/27 07:13:55;;;;;;;;;;;17.60;59.10;;;;;;5093344;28;19915;-74
2024/03/27 07:16:20;;;;;;;;;;;17.60;58.90;;;;;;5094051;28;19915;-74
2024/03/27 07:18:46;;;;;;;;;;;17.70;59.30;;;;;;5092755;28;19908;-74
2024/03/27 07:21:11;;;;;;;;;;;17.60;59.10;;;;;;5092790;28;19922;-75
2024/03/27 07:23:36;;;;;;;;;;;17.60;59.10;;;;;;5092665;28;20004;-75
2024/03/27 07:26:07;;;;;;;;;;;17.70;58.90;;;;;;5092857;28;19924;-75
2024/03/27 07:28:33;;;;;;;;;;;17.70;59.00;;;;;;5092972;28;19920;-74
2024/03/27 07:30:59;;;;;;;;;;;17.60;59.00;;;;;;5092959;28;19911;-75
2024/03/27 07:33:24;;;;;;;;;;;17.70;59.00;;;;;;5092545;28;19966;-75
2024/03/27 07:35:50;;;;;;;;;;;17.70;60.00;;;;;;5092571;28;19912;-75
2024/03/27 07:38:16;;;;;;;;;;;17.70;59.10;;;;;;5092514;28;20354;-74
2024/03/27 07:40:41;;;;;;;;;;;17.60;59.10;;;;;;5092473;28;20395;-74
2024/03/27 07:43:07;;;;;;;;;;;17.60;59.00;;;;;;5092492;28;19916;-75
2024/03/27 07:45:33;;;;;;;;;;;17.60;59.20;;;;;;5092388;28;20317;-74
2024/03/27 07:48:00;;;;;;;;;;;17.70;58.90;;;;;;5092306;28;19912;-73
2024/03/27 07:50:25;;;;;;;;;;;17.70;56.40;;;;;;5092228;28;19914;-72
2024/03/27 07:52:51;;;;;;;;;;;17.60;59.20;;;;;;5092300;28;19908;-72
2024/03/27 07:55:16;;;;;;;;;;;17.70;59.00;;;;;;5092246;28;19908;-72
2024/03/27 07:57:42;;;;;;;;;;;17.70;59.00;;;;;;5092156;28;19915;-72
2024/03/27 08:00:11;;;;;;;;;;;17.60;59.10;;;;;;5092684;28;19908;-72
2024/03/27 08:02:37;;;;;;;;;;;17.70;58.60;;;;;;5091791;28;20286;-72
2024/03/27 08:05:05;;;;;;;;;;;17.60;59.00;;;;;;5092094;28;19912;-72
2024/03/27 08:07:31;;;;;;;;;;;17.60;58.60;;;;;;5092024;28;19908;-72
2024/03/27 08:09:56;;;;;;;;;;;17.60;59.40;;;;;;5092112;28;20397;-72
2024/03/27 08:12:22;;;;;;;;;;;17.60;59.10;;;;;;5092132;28;19909;-72
2024/03/27 08:14:47;;;;;;;;;;;17.70;59.50;;;;;;5091867;28;19908;-72
2024/03/27 08:17:13;;;;;;;;;;;17.90;59.20;;;;;;5092002;28;19908;-71
2024/03/27 08:19:41;;;;;;;;;;;17.60;59.10;;;;;;5091961;28;20474;-72
2024/03/27 08:22:07;;;;;;;;;;;17.60;57.10;;;;;;5091672;28;19908;-72
2024/03/27 08:24:33;;;;;;;;;;;17.60;59.10;;;;;;5091284;28;19923;-73
2024/03/27 08:26:59;;;;;;;;;;;17.70;58.90;;;;;;5091903;28;19909;-73
2024/03/27 08:29:25;;;;;;;;;;;17.60;59.00;;;;;;5092258;28;20437;-73
2024/03/27 08:31:50;;;;;;;;;;;17.60;59.30;;;;;;5073546;28;19950;-73
2024/03/27 08:34:16;;;;;;;;;;;17.60;59.00;;;;;;5091710;28;19909;-83
2024/03/27 08:36:41;;;;;;;;;;;17.60;59.30;;;;;;5091709;28;19908;-75
2024/03/27 08:39:07;;;;;;;;;;;17.60;58.70;;;;;;5091631;28;19930;-76
2024/03/27 08:41:33;;;;;;;;;;;17.30;59.30;;;;;;5092115;28;19988;-76
2024/03/27 08:44:02;;;;;;;;;;;17.60;59.00;;;;;;5091798;28;19927;-76
2024/03/27 08:46:28;;;;;;;;;;;17.60;58.90;;;;;;5091625;28;19961;-76
2024/03/27 08:48:54;;;;;;;;;;;17.60;59.50;;;;;;5091883;28;19985;-75
2024/03/27 08:51:23;;;;;;;;;;;17.60;58.80;;;;;;5091830;28;19908;-76
2024/03/27 08:53:49;;;;;;;;;;;17.70;58.90;;;;;;5091802;28;19919;-76
2024/03/27 08:56:15;;;;;;;;;;;17.60;58.70;;;;;;5092003;28;20358;-75
2024/03/27 08:58:42;;;;;;;;;;;17.70;58.80;;;;;;5091874;28;19908;-76
2024/03/27 09:01:14;;;;;;;;;;;17.70;58.30;;;;;;5091349;28;19908;-76
2024/03/27 09:03:40;;;;;;;;;;;17.60;55.60;;;;;;5091286;28;19920;-76
2024/03/27 09:06:07;;;;;;;;;;;17.60;58.40;;;;;;5091424;28;20526;-76
2024/03/27 09:08:33;;;;;;;;;;;17.70;58.50;;;;;;5092048;28;19915;-75
2024/03/27 09:10:59;;;;;;;;;;;17.60;58.70;;;;;;5091444;28;20306;-73
2024/03/27 09:13:26;;;;;;;;;;;17.60;58.50;;;;;;5091577;28;19908;-71
2024/03/27 09:15:55;;;;;;;;;;;17.70;58.90;;;;;;5091741;28;19944;-71
2024/03/27 09:18:21;;;;;;;;;;;17.70;58.50;;;;;;5092261;28;20053;-72
2024/03/27 09:21:00;;;;;;;;;;;17.60;58.90;;;;;;5091353;28;19908;-73
2024/03/27 09:23:27;;;;;;;;;;;17.60;58.50;;;;;;5091314;28;19959;-72
2024/03/27 09:25:56;;;;;;;;;;;17.70;58.90;;;;;;5092026;28;20286;-74
2024/03/27 09:28:23;;;;;;;;;;;17.70;55.40;;;;;;5091384;28;19908;-74
2024/03/27 09:30:51;;;;;;;;;;;17.70;58.90;;;;;;5091597;28;19912;-79
2024/03/27 09:33:18;;;;;;;;;;;17.70;59.10;;;;;;5091497;28;20339;-75
2024/03/27 09:35:45;;;;;;;;;;;17.70;59.30;;;;;;5094321;28;19908;-75
2024/03/27 09:38:12;;;;;;;;;;;17.70;59.10;;;;;;5095049;28;19908;-77
2024/03/27 09:40:38;;;;;;;;;;;17.80;58.80;;;;;;5094809;28;20378;-76
2024/03/27 09:43:05;;;;;;;;;;;17.70;58.90;;;;;;5094804;28;19917;-76
2024/03/27 09:45:32;;;;;;;;;;;17.70;58.70;;;;;;5094769;28;19908;-76
2024/03/27 09:47:58;;;;;;;;;;;17.60;58.60;;;;;;5094908;28;19908;-73
2024/03/27 09:50:25;;;;;;;;;;;18.00;59.10;;;;;;5094889;28;19914;-73
2024/03/27 09:52:51;;;;;;;;;;;17.70;58.60;;;;;;5094471;28;19962;-73
2024/03/27 09:55:18;;;;;;;;;;;17.70;58.50;;;;;;5095190;28;20282;-73
2024/03/27 09:57:44;;;;;;;;;;;17.70;58.70;;;;;;5094672;28;19908;-73
2024/03/27 10:00:11;;;;;;;;;;;17.70;58.70;;;;;;5094333;28;20429;-73
2024/03/27 10:02:38;;;;;;;;;;;17.80;58.20;;;;;;5094076;28;19920;-73
2024/03/27 10:05:05;;;;;;;;;;;17.80;58.90;;;;;;5094547;28;19919;-73
2024/03/27 10:07:31;;;;;;;;;;;17.80;57.90;;;;;;5094516;28;19909;-73
2024/03/27 10:09:57;;;;;;;;;;;17.80;58.90;;;;;;5094522;28;19908;-73
2024/03/27 10:12:25;;;;;;;;;;;17.80;58.50;;;;;;5093626;28;20344;-73
2024/03/27 10:14:50;;;;;;;;;;;17.40;58.30;;;;;;5094288;28;19915;-73
2024/03/27 10:17:17;;;;;;;;;;;17.50;58.50;;;;;;5093946;28;19909;-73
2024/03/27 10:19:42;;;;;;;;;;;17.90;58.90;;;;;;5094264;28;19908;-73
2024/03/27 10:22:09;;;;;;;;;;;17.90;58.80;;;;;;5094664;28;19961;-73
2024/03/27 10:24:35;;;;;;;;;;;17.80;58.60;;;;;;5094091;28;19923;-73
2024/03/27 10:27:02;;;;;;;;;;;17.90;58.90;;;;;;5094078;28;19920;-73
2024/03/27 10:29:28;;;;;;;;;;;17.80;58.80;;;;;;5094055;28;19961;-74
2024/03/27 10:31:54;;;;;;;;;;;17.90;59.00;;;;;;5093919;28;20570;-73
2024/03/27 10:34:20;;;;;;;;;;;18.20;59.00;;;;;;5093974;28;19977;-73
2024/03/27 10:36:50;;;;;;;;;;;17.90;58.80;;;;;;5093543;28;19908;-73
2024/03/27 10:39:16;;;;;;;;;;;17.90;58.70;;;;;;5093404;28;19908;-73
2024/03/27 10:41:43;;;;;;;;;;;17.90;59.00;;;;;;5093520;28;19908;-74
2024/03/27 10:44:10;;;;;;;;;;;17.90;59.00;;;;;;5093596;28;20263;-73
2024/03/27 10:46:38;;;;;;;;;;;17.90;58.90;;;;;;5092460;28;19908;-73
2024/03/27 10:49:06;;;;;;;;;;;17.90;58.70;;;;;;5093565;28;19935;-73
2024/03/27 10:51:33;;;;;;;;;;;17.90;59.00;;;;;;5093999;28;19908;-74
2024/03/27 10:53:59;;;;;;;;;;;17.90;59.20;;;;;;5093480;28;19915;-73
2024/03/27 10:56:25;;;;;;;;;;;17.90;58.70;;;;;;5093376;28;19915;-73
2024/03/27 10:58:52;;;;;;;;;;;17.90;59.00;;;;;;5093435;28;19941;-73
2024/03/27 11:01:20;;;;;;;;;;;18.10;58.40;;;;;;5093289;28;19915;-73
2024/03/27 11:03:49;;;;;;;;;;;17.90;58.70;;;;;;5092942;28;19920;-73
2024/03/27 11:06:15;;;;;;;;;;;18.00;59.10;;;;;;5093303;28;19912;-73
2024/03/27 11:08:42;;;;;;;;;;;18.00;58.70;;;;;;5093306;28;19912;-73
2024/03/27 11:11:12;;;;;;;;;;;17.90;58.90;;;;;;5093286;28;19916;-73
2024/03/27 11:13:37;;;;;;;;;;;17.90;59.10;;;;;;5093282;28;20321;-72
2024/03/27 11:16:13;;;;;;;;;;;17.90;58.80;;;;;;5093327;28;19919;-74
2024/03/27 11:18:42;;;;;;;;;;;18.00;55.60;;;;;;5093764;28;19908;-77
2024/03/27 11:21:10;;;;;;;;;;;18.00;58.80;;;;;;5093241;28;19919;-70
2024/03/27 11:23:37;;;;;;;;;;;18.00;58.60;;;;;;5093007;28;19923;-74
2024/03/27 11:26:03;;;;;;;;;;;18.00;58.90;;;;;;5092697;28;19912;-73
2024/03/27 11:28:29;;;;;;;;;;;18.00;58.20;;;;;;5092712;28;19908;-73
2024/03/27 11:30:55;;;;;;;;;;;18.00;58.50;;;;;;5092621;28;20004;-72
2024/03/27 11:33:21;;;;;;;;;;;18.60;59.10;;;;;;5092937;28;20011;-72
2024/03/27 11:35:53;;;;;;;;;;;18.10;58.60;;;;;;5092469;28;19991;-72
2024/03/27 11:38:23;;;;;;;;;;;18.30;55.30;;;;;;5092561;28;19961;-74
2024/03/27 11:40:49;;;;;;;;;;;18.00;58.30;;;;;;5092482;28;19912;-75
2024/03/27 11:43:15;;;;;;;;;;;18.10;58.50;;;;;;5092375;28;19915;-74
2024/03/27 11:45:40;;;;;;;;;;;18.10;58.10;;;;;;5092353;28;19916;-74
2024/03/27 11:48:06;;;;;;;;;;;18.20;58.40;;;;;;5092907;28;19908;-75
2024/03/27 11:50:32;;;;;;;;;;;18.10;58.30;;;;;;5092234;28;19912;-72
2024/03/27 11:52:57;;;;;;;;;;;17.80;57.70;;;;;;5092446;28;20400;-73
2024/03/27 11:55:23;;;;;;;;;;;18.30;58.10;;;;;;5092317;28;20393;-76
2024/03/27 11:57:48;;;;;;;;;;;18.40;57.80;;;;;;5092266;28;19908;-75
2024/03/27 12:00:14;;;;;;;;;;;18.60;57.80;;;;;;5092407;28;19957;-76
2024/03/27 12:02:39;;;;;;;;;;;18.60;57.20;;;;;;5091689;28;19936;-75
2024/03/27 12:05:05;;;;;;;;;;;18.50;57.40;;;;;;5092154;28;19908;-75
2024/03/27 12:07:31;;;;;;;;;;;18.70;56.60;;;;;;5092300;28;19908;-75
2024/03/27 12:10:00;;;;;;;;;;;18.60;57.10;;;;;;5092115;28;20323;-75
2024/03/27 12:12:26;;;;;;;;;;;18.70;57.30;;;;;;5092139;28;19955;-75
2024/03/27 12:14:52;;;;;;;;;;;18.80;57.20;;;;;;5092158;28;19908;-75
2024/03/27 12:17:18;;;;;;;;;;;18.70;56.80;;;;;;5092797;28;19951;-75
2024/03/27 12:19:51;;;;;;;;;;;18.80;57.00;;;;;;5092093;28;19908;-76
2024/03/27 12:22:17;;;;;;;;;;;18.90;54.40;;;;;;5092027;28;19931;-75
2024/03/27 12:24:42;;;;;;;;;;;19.10;57.70;;;;;;5091890;28;19955;-75
2024/03/27 12:27:08;;;;;;;;;;;19.10;57.10;;;;;;5092239;28;19962;-74
2024/03/27 12:29:33;;;;;;;;;;;20.00;57.50;;;;;;5092124;28;20375;-74
2024/03/27 12:32:01;;;;;;;;;;;19.40;56.70;;;;;;5091933;28;19915;-80
2024/03/27 12:34:26;;;;;;;;;;;19.40;56.70;;;;;;5092249;28;19916;-76
2024/03/27 12:36:52;;;;;;;;;;;19.30;56.60;;;;;;5091744;28;19908;-75
2024/03/27 12:39:17;;;;;;;;;;;19.30;56.50;;;;;;5091737;28;20011;-76
2024/03/27 12:41:43;;;;;;;;;;;19.30;57.10;;;;;;5091862;28;19912;-76
2024/03/27 12:44:09;;;;;;;;;;;19.80;57.10;;;;;;5092510;28;19920;-75
2024/03/27 12:46:35;;;;;;;;;;;19.30;56.80;;;;;;5091988;28;20050;-76
2024/03/27 12:49:00;;;;;;;;;;;19.30;57.00;;;;;;5091949;28;20002;-76
2024/03/27 12:51:26;;;;;;;;;;;19.20;57.20;;;;;;5091601;28;20278;-76
2024/03/27 12:53:52;;;;;;;;;;;19.30;57.40;;;;;;5091470;28;19908;-76
2024/03/27 12:56:18;;;;;;;;;;;19.60;56.00;;;;;;5092024;28;19908;-75
2024/03/27 12:58:44;;;;;;;;;;;19.50;56.50;;;;;;5091590;28;19908;-75
2024/03/27 13:01:11;;;;;;;;;;;19.70;55.90;;;;;;5091593;28;19912;-76
2024/03/27 13:03:37;;;;;;;;;;;19.60;56.30;;;;;;5091449;28;19927;-75
2024/03/27 13:06:03;;;;;;;;;;;19.80;56.40;;;;;;5091802;28;19912;-75
2024/03/27 13:08:29;;;;;;;;;;;19.70;55.70;;;;;;5091755;28;19909;-76
2024/03/27 13:10:55;;;;;;;;;;;19.80;55.90;;;;;;5095281;28;20326;-75
2024/03/27 13:13:21;;;;;;;;;;;20.00;55.50;;;;;;5095778;28;19995;-76
2024/03/27 13:15:46;;;;;;;;;;;20.20;55.00;;;;;;5095173;28;20011;-76
2024/03/27 13:18:12;;;;;;;;;;;20.30;54.80;;;;;;5095617;28;19908;-75
2024/03/27 13:20:38;;;;;;;;;;;20.30;54.90;;;;;;5095544;28;19916;-76
2024/03/27 13:23:04;;;;;;;;;;;20.30;54.70;;;;;;5095371;28;20305;-76
2024/03/27 13:25:30;;;;;;;;;;;20.30;54.80;;;;;;5095230;28;20422;-73
2024/03/27 13:27:57;;;;;;;;;;;20.30;54.40;;;;;;5095071;28;19908;-73
2024/03/27 13:30:23;;;;;;;;;;;20.50;54.60;;;;;;5095106;28;19954;-73
2024/03/27 13:32:50;;;;;;;;;;;20.50;54.40;;;;;;5094951;28;19955;-73
2024/03/27 13:35:16;;;;;;;;;;;20.60;54.10;;;;;;5095270;28;19909;-73
2024/03/27 13:37:42;;;;;;;;;;;20.60;54.20;;;;;;5094835;28;20263;-73
2024/03/27 13:40:11;;;;;;;;;;;20.60;53.80;;;;;;5094826;28;20037;-72
2024/03/27 13:42:37;;;;;;;;;;;20.60;53.20;;;;;;5095198;28;19915;-76
2024/03/27 13:45:03;;;;;;;;;;;20.50;54.20;;;;;;5095056;28;19913;-76
2024/03/27 13:47:29;;;;;;;;;;;20.50;54.40;;;;;;5094993;28;19915;-76
2024/03/27 13:49:55;;;;;;;;;;;20.40;55.00;;;;;;5094952;28;19955;-75
2024/03/27 13:52:22;;;;;;;;;;;20.40;55.10;;;;;;5094972;28;19962;-76
2024/03/27 13:54:48;;;;;;;;;;;20.50;54.90;;;;;;5094833;28;19908;-77
2024/03/27 13:57:13;;;;;;;;;;;20.50;55.00;;;;;;5094543;28;20354;-75
2024/03/27 13:59:39;;;;;;;;;;;20.50;54.80;;;;;;5094573;28;19908;-76
2024/03/27 14:02:05;;;;;;;;;;;20.80;53.80;;;;;;5094216;28;19927;-75
2024/03/27 14:04:30;;;;;;;;;;;20.70;54.30;;;;;;5094415;28;19916;-75
2024/03/27 14:06:56;;;;;;;;;;;20.80;54.20;;;;;;5094320;28;19954;-75
2024/03/27 14:09:21;;;;;;;;;;;20.80;54.00;;;;;;5094653;28;20239;-76